createdAt,value
2022-08-17T00:00:34.451Z,6.07
2022-08-17T00:03:09.991Z,6.45
2022-08-17T00:05:41.978Z,4.90
2022-08-17T00:08:10.133Z,6.25
2022-08-17T00:10:38.314Z,6.00
2022-08-17T00:13:10.263Z,5.30
2022-08-17T00:15:38.618Z,5.85
2022-08-17T00:19:06.324Z,5.47
2022-08-17T00:20:56.067Z,6.05
2022-08-17T00:23:24.956Z,5.60
2022-08-17T00:25:53.707Z,5.32
2022-08-17T00:28:23.356Z,5.85
2022-08-17T00:30:53.702Z,5.47
2022-08-17T00:33:26.400Z,5.03
2022-08-17T00:35:55.624Z,5.63
2022-08-17T00:38:24.173Z,5.60
2022-08-17T00:40:55.883Z,4.93
2022-08-17T00:43:32.954Z,5.15
2022-08-17T00:46:03.399Z,4.78
2022-08-17T00:48:32.415Z,5.85
2022-08-17T00:51:05.077Z,5.00
2022-08-17T00:53:38.439Z,5.40
2022-08-17T00:56:09.240Z,5.65
2022-08-17T00:58:39.737Z,5.50
2022-08-17T01:01:11.786Z,5.65
2022-08-17T01:03:41.711Z,5.18
2022-08-17T01:06:10.283Z,5.45
2022-08-17T01:08:40.603Z,5.55
2022-08-17T01:11:09.530Z,5.10
2022-08-17T01:13:43.504Z,5.13
2022-08-17T01:16:17.151Z,6.05
2022-08-17T01:18:46.934Z,5.72
2022-08-17T01:21:22.336Z,5.03
2022-08-17T01:23:51.811Z,6.15
2022-08-17T01:26:20.541Z,5.55
2022-08-17T01:28:54.309Z,5.70
2022-08-17T01:31:26.554Z,5.43
2022-08-17T01:33:54.582Z,5.72
2022-08-17T01:36:22.872Z,5.68
2022-08-17T01:38:52.489Z,5.30
2022-08-17T01:41:23.211Z,5.30
2022-08-17T01:43:55.941Z,5.80
2022-08-17T01:46:27.148Z,5.30
2022-08-17T01:48:56.568Z,5.70
2022-08-17T01:51:25.971Z,5.75
2022-08-17T01:53:59.347Z,5.28
2022-08-17T01:56:29.757Z,6.00
2022-08-17T01:58:58.249Z,4.75
2022-08-17T02:01:28.588Z,5.60
2022-08-17T02:04:00.911Z,5.78
2022-08-17T02:06:31.438Z,4.75
2022-08-17T02:09:16.806Z,5.20
2022-08-17T02:11:46.384Z,5.30
2022-08-17T02:14:14.808Z,5.05
2022-08-17T02:16:43.529Z,5.38
2022-08-17T02:19:13.683Z,5.70
2022-08-17T02:21:43.210Z,5.22
2022-08-17T02:24:16.617Z,5.60
2022-08-17T02:26:46.293Z,5.13
2022-08-17T02:29:15.814Z,5.60
2022-08-17T02:31:44.726Z,5.05
2022-08-17T02:34:13.278Z,5.55
2022-08-17T02:36:41.550Z,5.40
2022-08-17T02:39:11.618Z,5.97
2022-08-17T02:41:41.583Z,5.22
2022-08-17T02:44:09.559Z,4.75
2022-08-17T02:46:37.970Z,5.03
2022-08-17T02:49:06.498Z,5.03
2022-08-17T02:51:35.366Z,5.53
2022-08-17T02:54:39.291Z,5.07
2022-08-17T02:56:52.843Z,5.38
2022-08-17T02:59:20.899Z,5.10
2022-08-17T03:01:49.112Z,5.35
2022-08-17T03:04:17.895Z,5.57
2022-08-17T03:06:45.871Z,5.30
2022-08-17T03:09:14.039Z,5.80
2022-08-17T03:11:41.980Z,5.13
2022-08-17T03:14:11.369Z,5.68
2022-08-17T03:16:39.393Z,5.80
2022-08-17T03:19:07.365Z,5.32
2022-08-17T03:21:35.454Z,5.50
2022-08-17T03:24:08.772Z,5.35
2022-08-17T03:26:37.221Z,5.07
2022-08-17T03:29:05.179Z,5.60
2022-08-17T03:31:34.505Z,5.68
2022-08-17T03:34:05.274Z,5.80
2022-08-17T03:36:36.048Z,5.43
2022-08-17T03:39:04.577Z,5.15
2022-08-17T03:41:32.621Z,5.40
2022-08-17T03:44:00.761Z,5.50
2022-08-17T03:46:46.498Z,5.22
2022-08-17T03:49:33.373Z,5.55
2022-08-17T03:52:18.750Z,5.55
2022-08-17T03:57:36.961Z,5.05
2022-08-17T04:00:06.104Z,5.05
2022-08-17T04:02:40.483Z,5.10
2022-08-17T04:05:09.547Z,4.93
2022-08-17T04:07:37.499Z,4.90
2022-08-17T04:10:06.023Z,5.03
2022-08-17T04:12:45.923Z,5.72
2022-08-17T04:15:14.456Z,5.20
2022-08-17T04:17:44.304Z,5.47
2022-08-17T04:20:13.328Z,4.53
2022-08-17T04:22:41.593Z,4.82
2022-08-17T04:25:15.077Z,5.53
2022-08-17T04:27:44.561Z,5.47
2022-08-17T04:30:14.025Z,6.25
2022-08-17T04:33:02.273Z,5.78
2022-08-17T04:35:38.116Z,6.32
2022-08-17T04:38:06.560Z,6.57
2022-08-17T04:40:52.268Z,6.43
2022-08-17T04:43:24.479Z,5.85
2022-08-17T04:45:56.911Z,6.03
2022-08-17T04:48:29.980Z,5.13
2022-08-17T04:51:07.182Z,5.60
2022-08-17T04:53:35.189Z,5.40
2022-08-17T04:56:03.183Z,5.75
2022-08-17T04:58:33.196Z,6.35
2022-08-17T05:01:01.553Z,5.85
2022-08-17T05:03:30.323Z,5.82
2022-08-17T05:05:58.264Z,6.30
2022-08-17T05:08:26.388Z,5.75
2022-08-17T05:10:54.352Z,5.57
2022-08-17T05:13:25.440Z,6.55
2022-08-17T05:15:57.922Z,5.60
2022-08-17T05:18:26.592Z,5.45
2022-08-17T05:20:54.834Z,5.55
2022-08-17T05:23:25.764Z,5.65
2022-08-17T05:25:56.426Z,5.40
2022-08-17T05:28:27.553Z,5.85
2022-08-17T05:31:00.134Z,6.32
2022-08-17T05:33:31.874Z,6.25
2022-08-17T05:36:00.840Z,7.00
2022-08-17T05:38:30.114Z,6.43
2022-08-17T05:40:58.772Z,6.57
2022-08-17T05:43:28.955Z,6.47
2022-08-17T05:46:04.451Z,6.43
2022-08-17T05:48:40.514Z,5.60
2022-08-17T05:51:38.098Z,5.82
2022-08-17T05:54:25.245Z,6.05
2022-08-17T05:57:03.598Z,5.63
2022-08-17T05:59:43.331Z,5.63
2022-08-17T06:02:22.498Z,5.43
2022-08-17T06:05:06.639Z,6.00
2022-08-17T06:07:41.721Z,5.57
2022-08-17T06:10:18.618Z,5.70
2022-08-17T06:13:00.805Z,5.30
2022-08-17T06:15:34.094Z,6.65
2022-08-17T06:18:06.725Z,6.28
2022-08-17T06:20:44.933Z,6.18
2022-08-17T06:23:18.298Z,6.03
2022-08-17T06:25:50.829Z,6.28
2022-08-17T06:28:27.359Z,5.90
2022-08-17T06:31:03.263Z,6.45
2022-08-17T06:33:37.092Z,5.88
2022-08-17T06:36:24.709Z,7.22
2022-08-17T06:39:04.350Z,6.50
2022-08-17T06:41:42.989Z,7.25
2022-08-17T06:44:49.965Z,6.80
2022-08-17T06:47:09.131Z,6.35
2022-08-17T06:49:55.218Z,6.45
2022-08-17T06:52:46.107Z,6.78
2022-08-17T06:55:20.254Z,6.72
2022-08-17T06:57:52.414Z,7.07
2022-08-17T07:00:23.970Z,6.32
2022-08-17T07:02:56.602Z,7.15
2022-08-17T07:05:31.663Z,6.65
2022-08-17T07:08:06.528Z,7.15
2022-08-17T07:10:42.734Z,6.65
2022-08-17T07:13:32.272Z,6.35
2022-08-17T07:16:08.871Z,6.15
2022-08-17T07:18:37.441Z,6.05
2022-08-17T07:21:17.968Z,6.03
2022-08-17T07:24:01.035Z,6.05
2022-08-17T07:26:29.625Z,6.18
2022-08-17T07:28:58.032Z,6.05
2022-08-17T07:31:27.666Z,6.07
2022-08-17T07:34:07.075Z,5.95
2022-08-17T07:36:36.528Z,6.22
2022-08-17T07:39:06.135Z,5.38
2022-08-17T07:41:57.504Z,5.13
2022-08-17T07:44:27.787Z,5.93
2022-08-17T07:47:13.671Z,6.40
2022-08-17T07:49:44.677Z,5.90
2022-08-17T07:52:50.327Z,5.68
2022-08-17T07:55:27.874Z,5.53
2022-08-17T07:57:58.278Z,5.00
2022-08-17T08:00:32.160Z,5.32
2022-08-17T08:03:16.777Z,5.03
2022-08-17T08:05:57.648Z,5.10
2022-08-17T08:08:35.279Z,5.47
2022-08-17T08:11:08.382Z,5.35
2022-08-17T08:13:42.653Z,5.07
2022-08-17T08:16:21.496Z,5.07
2022-08-17T08:18:55.755Z,5.05
2022-08-17T08:21:36.100Z,5.82
2022-08-17T08:24:31.063Z,5.15
2022-08-17T08:27:09.265Z,5.15
2022-08-17T08:29:46.496Z,5.03
2022-08-17T08:32:21.042Z,5.53
2022-08-17T08:35:02.546Z,6.28
2022-08-17T08:37:43.477Z,5.28
2022-08-17T08:40:29.874Z,5.30
2022-08-17T08:43:07.075Z,5.68
2022-08-17T08:45:43.944Z,5.65
2022-08-17T08:48:53.026Z,5.90
2022-08-17T08:51:17.975Z,5.65
2022-08-17T08:53:55.603Z,5.97
2022-08-17T08:56:32.556Z,5.80
2022-08-17T08:59:08.880Z,5.60
2022-08-17T09:01:44.808Z,5.15
2022-08-17T09:05:02.830Z,5.20
2022-08-17T09:07:34.786Z,5.05
2022-08-17T09:10:09.579Z,5.47
2022-08-17T09:12:47.631Z,5.93
2022-08-17T09:15:19.449Z,5.43
2022-08-17T09:18:14.593Z,5.43
2022-08-17T09:20:50.371Z,5.05
2022-08-17T09:23:30.364Z,5.68
2022-08-17T09:26:04.121Z,5.57
2022-08-17T09:28:37.932Z,5.75
2022-08-17T09:31:10.530Z,5.40
2022-08-17T09:33:43.971Z,5.93
2022-08-17T09:36:17.381Z,4.82
2022-08-17T09:38:55.088Z,5.85
2022-08-17T09:41:29.281Z,5.28
2022-08-17T09:44:10.739Z,4.93
2022-08-17T09:46:57.678Z,5.63
2022-08-17T09:49:31.921Z,5.47
2022-08-17T09:52:04.460Z,5.53
2022-08-17T09:54:40.289Z,5.45
2022-08-17T09:57:31.599Z,5.10
2022-08-17T10:00:23.839Z,4.75
2022-08-17T10:03:28.319Z,5.40
2022-08-17T10:06:06.381Z,5.68
2022-08-17T10:08:40.957Z,5.25
2022-08-17T10:11:33.474Z,5.25
2022-08-17T10:14:37.015Z,5.10
2022-08-17T10:17:08.882Z,5.68
2022-08-17T10:19:44.181Z,5.13
2022-08-17T10:22:38.829Z,6.35
2022-08-17T10:25:48.687Z,5.15
2022-08-17T10:28:25.845Z,4.50
2022-08-17T10:31:23.260Z,4.93
2022-08-17T10:34:01.817Z,4.50
2022-08-17T10:36:46.237Z,4.85
2022-08-17T10:39:23.921Z,4.85
2022-08-17T10:41:57.379Z,4.82
2022-08-17T10:44:39.907Z,4.43
2022-08-17T10:47:12.842Z,5.10
2022-08-17T10:49:47.790Z,5.05
2022-08-17T10:52:52.602Z,4.68
2022-08-17T10:55:21.390Z,4.97
2022-08-17T10:57:51.308Z,4.90
2022-08-17T11:01:08.231Z,4.53
2022-08-17T11:03:36.335Z,4.70
2022-08-17T11:06:16.913Z,5.20
2022-08-17T11:09:11.910Z,4.85
2022-08-17T11:11:51.646Z,5.05
2022-08-17T11:14:34.109Z,5.03
2022-08-17T11:17:15.452Z,5.38
2022-08-17T11:20:13.164Z,5.07
2022-08-17T11:23:23.878Z,4.45
2022-08-17T11:25:54.840Z,4.97
2022-08-17T11:28:26.783Z,5.13
2022-08-17T11:30:57.489Z,5.00
2022-08-17T11:33:59.328Z,5.20
2022-08-17T11:36:56.060Z,5.45
2022-08-17T11:39:37.743Z,4.68
2022-08-17T11:42:11.886Z,4.70
2022-08-17T11:44:51.484Z,4.78
2022-08-17T11:47:49.512Z,4.80
2022-08-17T11:51:01.456Z,4.90
2022-08-17T11:54:31.701Z,5.22
2022-08-17T11:57:00.809Z,5.68
2022-08-17T11:59:58.966Z,4.93
2022-08-17T12:02:48.911Z,4.35
2022-08-17T12:05:34.178Z,4.93
2022-08-17T12:08:20.175Z,4.97
2022-08-17T12:11:11.763Z,4.70
2022-08-17T12:13:56.884Z,4.50
2022-08-17T12:16:25.477Z,4.82
2022-08-17T12:18:58.031Z,6.07
2022-08-17T12:21:40.333Z,4.80
2022-08-17T12:24:19.916Z,4.70
2022-08-17T12:26:53.599Z,4.55
2022-08-17T12:29:38.418Z,4.88
2022-08-17T12:32:08.469Z,4.30
2022-08-17T12:34:40.739Z,4.97
2022-08-17T12:37:16.342Z,4.78
2022-08-17T12:39:52.362Z,4.85
2022-08-17T12:42:29.353Z,4.90
2022-08-17T12:44:59.076Z,4.72
2022-08-17T12:47:30.023Z,4.63
2022-08-17T12:50:08.418Z,4.55
2022-08-17T12:53:01.638Z,4.18
2022-08-17T12:55:35.866Z,4.78
2022-08-17T12:58:04.455Z,4.80
2022-08-17T13:00:38.043Z,4.68
2022-08-17T13:03:09.711Z,5.22
2022-08-17T13:05:43.668Z,4.97
2022-08-17T13:08:16.683Z,5.10
2022-08-17T13:10:54.434Z,4.40
2022-08-17T13:13:24.445Z,4.93
2022-08-17T13:15:57.070Z,4.88
2022-08-17T13:18:47.249Z,4.53
2022-08-17T13:21:27.252Z,4.88
2022-08-17T13:23:57.962Z,4.78
2022-08-17T13:26:30.319Z,4.85
2022-08-17T13:28:59.143Z,5.22
2022-08-17T13:31:52.089Z,4.97
2022-08-17T13:34:38.711Z,5.78
2022-08-17T13:37:29.974Z,5.50
2022-08-17T13:40:00.703Z,6.00
2022-08-17T13:42:34.769Z,5.35
2022-08-17T13:45:41.255Z,5.28
2022-08-17T13:48:17.786Z,5.00
2022-08-17T13:50:49.236Z,5.30
2022-08-17T13:53:19.764Z,5.53
2022-08-17T13:55:49.889Z,5.65
2022-08-17T13:58:23.360Z,4.75
2022-08-17T14:00:51.785Z,5.43
2022-08-17T14:03:21.889Z,5.18
2022-08-17T14:05:51.056Z,4.38
2022-08-17T14:08:20.955Z,4.80
2022-08-17T14:10:57.868Z,4.70
2022-08-17T14:13:25.846Z,4.78
2022-08-17T14:15:55.636Z,4.85
2022-08-17T14:18:35.657Z,4.78
2022-08-17T14:21:14.495Z,5.00
2022-08-17T14:23:54.307Z,4.70
2022-08-17T14:26:23.197Z,4.53
2022-08-17T14:28:56.690Z,4.97
2022-08-17T14:31:26.703Z,4.47
2022-08-17T14:33:56.176Z,4.65
2022-08-17T14:36:24.141Z,4.80
2022-08-17T14:38:52.135Z,4.50
2022-08-17T14:41:22.283Z,4.75
2022-08-17T14:43:51.408Z,4.82
2022-08-17T14:46:19.561Z,4.68
2022-08-17T14:48:47.531Z,4.57
2022-08-17T14:51:17.116Z,5.40
2022-08-17T14:53:45.862Z,5.00
2022-08-17T14:56:14.411Z,4.78
2022-08-17T14:58:42.973Z,5.60
2022-08-17T15:01:12.093Z,4.85
2022-08-17T15:03:41.111Z,5.35
2022-08-17T15:06:11.247Z,5.13
2022-08-17T15:08:42.006Z,5.43
2022-08-17T15:11:14.705Z,5.85
2022-08-17T15:13:52.685Z,6.35
2022-08-17T15:16:21.623Z,7.28
2022-08-17T15:18:50.188Z,7.85
2022-08-17T15:21:18.290Z,6.90
2022-08-17T15:23:47.796Z,7.13
2022-08-17T15:26:16.490Z,7.15
2022-08-17T15:28:44.558Z,7.22
2022-08-17T15:31:31.609Z,6.82
2022-08-17T15:34:00.784Z,6.28
2022-08-17T15:36:28.896Z,8.90
2022-08-17T15:38:58.861Z,6.45
2022-08-17T15:41:28.200Z,6.57
2022-08-17T15:43:56.967Z,5.10
2022-08-17T15:46:26.977Z,3.95
2022-08-17T15:48:59.017Z,3.70
2022-08-17T15:51:29.352Z,3.85
2022-08-17T15:54:04.557Z,4.18
2022-08-17T15:56:47.283Z,4.60
2022-08-17T15:59:15.242Z,4.13
2022-08-17T16:03:11.124Z,3.60
2022-08-17T16:04:31.875Z,3.13
2022-08-17T16:07:00.370Z,2.63
2022-08-17T16:09:29.771Z,2.35
2022-08-17T16:11:57.773Z,2.33
2022-08-17T16:14:33.540Z,2.40
2022-08-17T16:17:03.394Z,2.30
2022-08-17T16:19:32.550Z,2.40
2022-08-17T16:22:00.785Z,1.70
2022-08-17T16:24:31.248Z,1.83
2022-08-17T16:26:59.332Z,1.58
2022-08-17T16:29:27.250Z,2.05
2022-08-17T16:31:55.900Z,1.67
2022-08-17T16:34:24.017Z,1.70
2022-08-17T16:36:56.165Z,1.65
2022-08-17T16:39:26.616Z,1.55
2022-08-17T16:41:56.457Z,1.80
2022-08-17T16:44:25.811Z,1.65
2022-08-17T16:46:53.924Z,1.90
2022-08-17T16:49:37.364Z,1.90
2022-08-17T16:52:09.848Z,1.98
2022-08-17T16:54:39.298Z,1.75
2022-08-17T16:57:08.696Z,2.25
2022-08-17T16:59:41.006Z,1.65
2022-08-17T17:02:14.290Z,2.10
2022-08-17T17:04:48.120Z,2.03
2022-08-17T17:07:38.848Z,1.73
2022-08-17T17:10:10.392Z,1.52
2022-08-17T17:13:01.467Z,1.80
2022-08-17T17:15:39.471Z,2.00
2022-08-17T17:18:11.887Z,1.58
2022-08-17T17:20:45.876Z,1.70
2022-08-17T17:23:30.850Z,1.88
2022-08-17T17:26:09.292Z,2.45
2022-08-17T17:28:47.468Z,2.83
2022-08-17T17:31:18.098Z,2.70
2022-08-17T17:33:49.156Z,2.60
2022-08-17T17:36:25.275Z,2.40
2022-08-17T17:38:55.531Z,2.10
2022-08-17T17:41:29.250Z,2.05
2022-08-17T17:44:05.355Z,2.85
2022-08-17T17:46:39.501Z,2.25
2022-08-17T17:49:10.234Z,2.30
2022-08-17T17:52:06.485Z,1.98
2022-08-17T17:54:48.238Z,2.50
2022-08-17T17:57:27.364Z,2.17
2022-08-17T18:00:06.846Z,2.25
2022-08-17T18:02:51.284Z,2.33
2022-08-17T18:05:35.907Z,2.05
2022-08-17T18:08:19.318Z,2.15
2022-08-17T18:10:57.075Z,2.45
2022-08-17T18:13:41.763Z,2.35
2022-08-17T18:16:14.172Z,1.95
2022-08-17T18:18:44.808Z,2.15
2022-08-17T18:21:19.438Z,2.50
2022-08-17T18:23:50.947Z,2.03
2022-08-17T18:26:37.547Z,1.90
2022-08-17T18:29:16.460Z,1.98
2022-08-17T18:31:45.776Z,2.10
2022-08-17T18:34:46.040Z,1.50
2022-08-17T18:37:12.562Z,1.88
2022-08-17T18:39:44.303Z,2.22
2022-08-17T18:42:31.723Z,1.85
2022-08-17T18:44:59.762Z,2.72
2022-08-17T18:47:30.378Z,1.98
2022-08-17T18:50:02.394Z,1.92
2022-08-17T18:52:33.048Z,2.63
2022-08-17T18:55:12.790Z,1.77
2022-08-17T18:57:43.003Z,1.90
2022-08-17T19:00:18.188Z,1.92
2022-08-17T19:02:56.513Z,1.92
2022-08-17T19:05:40.519Z,2.10
2022-08-17T19:08:23.996Z,2.20
2022-08-17T19:10:55.321Z,2.05
2022-08-17T19:13:29.560Z,1.95
2022-08-17T19:16:11.682Z,2.30
2022-08-17T19:18:47.773Z,1.75
2022-08-17T19:21:19.757Z,1.92
2022-08-17T19:23:54.559Z,1.70
2022-08-17T19:26:54.502Z,1.60
2022-08-17T19:29:19.491Z,1.40
2022-08-17T19:31:50.873Z,1.50
2022-08-17T19:34:33.128Z,1.65
2022-08-17T19:37:06.930Z,1.40
2022-08-17T19:39:40.837Z,1.67
2022-08-17T19:42:14.055Z,1.20
2022-08-17T19:44:59.339Z,1.50
2022-08-17T19:47:56.579Z,1.52
2022-08-17T19:50:38.407Z,1.30
2022-08-17T19:53:17.637Z,1.60
2022-08-17T19:55:57.434Z,1.60
2022-08-17T19:58:38.266Z,1.63
2022-08-17T20:01:11.645Z,1.67
2022-08-17T20:03:52.032Z,1.55
2022-08-17T20:06:23.104Z,1.77
2022-08-17T20:08:59.077Z,1.23
2022-08-17T20:11:32.537Z,1.40
2022-08-17T20:14:05.892Z,1.35
2022-08-17T20:16:34.987Z,1.60
2022-08-17T20:19:07.076Z,1.75
2022-08-17T20:21:42.920Z,1.98
2022-08-17T20:24:21.328Z,1.50
2022-08-17T20:26:58.517Z,1.83
2022-08-17T20:29:37.807Z,2.10
2022-08-17T20:32:19.869Z,2.13
2022-08-17T20:34:49.417Z,2.60
2022-08-17T20:37:31.925Z,1.90
2022-08-17T20:40:23.122Z,1.45
2022-08-17T20:42:51.063Z,1.85
2022-08-17T20:45:58.235Z,2.42
2022-08-17T20:48:38.469Z,2.10
2022-08-17T20:51:19.165Z,2.22
2022-08-17T20:54:28.176Z,2.10
2022-08-17T20:56:59.178Z,2.15
2022-08-17T21:00:14.074Z,2.42
2022-08-17T21:02:44.488Z,1.70
2022-08-17T21:05:32.424Z,2.15
2022-08-17T21:08:14.346Z,2.10
2022-08-17T21:10:46.844Z,2.28
2022-08-17T21:13:36.409Z,1.75
2022-08-17T21:16:11.430Z,2.30
2022-08-17T21:18:45.603Z,1.70
2022-08-17T21:21:25.076Z,1.63
2022-08-17T21:24:08.539Z,1.33
2022-08-17T21:26:59.794Z,1.50
2022-08-17T21:29:33.752Z,1.60
2022-08-17T21:32:19.283Z,1.67
2022-08-17T21:35:31.055Z,1.40
2022-08-17T21:38:05.156Z,1.60
2022-08-17T21:40:34.779Z,1.40
2022-08-17T21:43:18.083Z,1.70
2022-08-17T21:45:56.718Z,1.58
2022-08-17T21:48:27.222Z,1.42
2022-08-17T21:51:03.755Z,1.50
2022-08-17T21:53:40.990Z,1.63
2022-08-17T21:56:11.964Z,2.00
2022-08-17T21:58:46.587Z,1.80
2022-08-17T22:01:25.702Z,1.88
2022-08-17T22:04:01.144Z,1.92
2022-08-17T22:06:34.309Z,2.20
2022-08-17T22:09:13.840Z,2.30
2022-08-17T22:12:05.960Z,2.08
2022-08-17T22:14:53.190Z,2.00
2022-08-17T22:17:24.849Z,2.17
2022-08-17T22:19:55.805Z,2.55
2022-08-17T22:22:30.236Z,3.15
2022-08-17T22:24:59.326Z,3.85
2022-08-17T22:27:56.292Z,4.45
2022-08-17T22:30:35.745Z,5.45
2022-08-17T22:33:35.596Z,6.97
2022-08-17T22:36:30.997Z,6.72
2022-08-17T22:39:00.914Z,7.72
2022-08-17T22:41:40.487Z,8.35
2022-08-17T22:44:15.911Z,6.88
2022-08-17T22:46:58.987Z,6.55
2022-08-17T22:49:32.763Z,5.88
2022-08-17T22:52:04.089Z,6.68
2022-08-17T22:54:49.946Z,6.05
2022-08-17T22:57:43.568Z,5.80
2022-08-17T23:00:30.311Z,5.75
2022-08-17T23:03:18.043Z,5.47
2022-08-17T23:05:49.797Z,5.25
2022-08-17T23:08:21.234Z,5.82
2022-08-17T23:10:49.980Z,4.78
2022-08-17T23:13:18.012Z,4.40
2022-08-17T23:15:52.636Z,3.83
2022-08-17T23:18:20.617Z,4.10
2022-08-17T23:20:49.956Z,4.75
2022-08-17T23:23:23.448Z,4.30
2022-08-17T23:25:51.772Z,4.28
2022-08-17T23:28:19.709Z,5.05
2022-08-17T23:30:48.500Z,4.25
2022-08-17T23:33:20.208Z,4.45
2022-08-17T23:35:49.565Z,4.13
2022-08-17T23:38:17.515Z,3.40
2022-08-17T23:40:45.585Z,4.13
2022-08-17T23:43:23.732Z,3.53
2022-08-17T23:45:54.922Z,4.45
2022-08-17T23:48:36.132Z,4.53
2022-08-17T23:51:10.520Z,4.10
2022-08-17T23:53:42.058Z,4.40
2022-08-17T23:56:11.474Z,4.28
2022-08-17T23:58:42.263Z,3.78
